Airville, Pennsylvania
Current Conditions -  °F | °C
As of 8:53 AM on Sunday 23 Nov 2014 (Local Time) from KLNS Reporting Station
Overcast Overcast  
Wind Chill:   Ceiling: 10000
Heat Index:   Visibility: 9mi
Dew Point: -4°   Wind: 0mph
Humidity: 60%   Direction: NA
Pressure: 30.21"   Gusts: NA
Location:  39.83°N, 76.41°W
Report Text: KLNS 231353Z 00000KT 9SM FEW075 OVC100 03/M04 A3021 RMK AO2 SLP233 T00331039
Loading
Personal Weather Stations






























Interactive Weather Map New forecast layout! Learn more

10-Day Weather Forecast

Advertisements
Track Severe Weather on mobile